Time,TemperatureF,DewpointF,PressureIn,WindDirection,WindDirectionDegrees,WindSpeedMPH,WindSpeedGustMPH,Humidity,HourlyPrecipIn,Conditions,Clouds,dailyrainin,SoftwareType,DateUTC
2013-06-16 00:12:00,74.0,59.0,-100.00,North,-999,-999.0,-999.0,59,-99.99,,,-99.99,,2013-06-16 04:12:00,
2013-06-16 00:23:00,74.0,59.0,-100.00,North,-999,-999.0,-999.0,59,-99.99,,,-99.99,,2013-06-16 04:23:00,
2013-06-16 00:34:00,74.0,59.0,-100.00,North,-999,-999.0,-999.0,60,-99.99,,,-99.99,,2013-06-16 04:34:00,
2013-06-16 00:43:00,72.0,60.0,-100.00,North,-999,-999.0,-999.0,65,-99.99,,,-99.99,,2013-06-16 04:43:00,
2013-06-16 00:53:00,72.0,60.0,-100.00,North,-999,-999.0,-999.0,65,-99.99,,,-99.99,,2013-06-16 04:53:00,
2013-06-16 01:02:00,72.0,60.0,-100.00,North,-999,-999.0,-999.0,66,-99.99,,,-99.99,,2013-06-16 05:02:00,
2013-06-16 01:12:00,72.0,60.0,-100.00,North,-999,-999.0,-999.0,67,-99.99,,,-99.99,,2013-06-16 05:12:00,
2013-06-16 01:22:00,72.0,60.0,-100.00,North,-999,-999.0,-999.0,67,-99.99,,,-99.99,,2013-06-16 05:22:00,
2013-06-16 01:34:00,71.0,61.0,-100.00,North,-999,-999.0,-999.0,69,-99.99,,,-99.99,,2013-06-16 05:34:00,
2013-06-16 01:43:00,71.0,61.0,-100.00,North,-999,-999.0,-999.0,70,-99.99,,,-99.99,,2013-06-16 05:43:00,
2013-06-16 01:52:00,71.0,61.0,-100.00,North,-999,-999.0,-999.0,70,-99.99,,,-99.99,,2013-06-16 05:52:00,
2013-06-16 02:02:00,71.0,61.0,-100.00,North,-999,-999.0,-999.0,69,-99.99,,,-99.99,,2013-06-16 06:02:00,
2013-06-16 02:12:00,70.0,61.0,-100.00,North,-999,-999.0,-999.0,73,-99.99,,,-99.99,,2013-06-16 06:12:00,
2013-06-16 02:23:00,70.0,61.0,-100.00,North,-999,-999.0,-999.0,73,-99.99,,,-99.99,,2013-06-16 06:23:00,
2013-06-16 02:33:00,70.0,61.0,-100.00,North,-999,-999.0,-999.0,73,-99.99,,,-99.99,,2013-06-16 06:33:00,
2013-06-16 02:43:00,70.0,61.0,-100.00,North,-999,-999.0,-999.0,74,-99.99,,,-99.99,,2013-06-16 06:43:00,
2013-06-16 02:52:00,70.0,61.0,-100.00,North,-999,-999.0,-999.0,74,-99.99,,,-99.99,,2013-06-16 06:52:00,
2013-06-16 03:01:00,70.0,62.0,-100.00,North,-999,-999.0,-999.0,75,-99.99,,,-99.99,,2013-06-16 07:01:00,
2013-06-16 03:12:00,70.0,62.0,-100.00,North,-999,-999.0,-999.0,74,-99.99,,,-99.99,,2013-06-16 07:12:00,
2013-06-16 03:23:00,70.0,62.0,-100.00,North,-999,-999.0,-999.0,74,-99.99,,,-99.99,,2013-06-16 07:23:00,
2013-06-16 03:33:00,71.0,62.0,-100.00,North,-999,-999.0,-999.0,74,-99.99,,,-99.99,,2013-06-16 07:33:00,
2013-06-16 03:43:00,71.0,62.0,-100.00,North,-999,-999.0,-999.0,74,-99.99,,,-99.99,,2013-06-16 07:43:00,
2013-06-16 03:53:00,70.0,62.0,-100.00,North,-999,-999.0,-999.0,77,-99.99,,,-99.99,,2013-06-16 07:53:00,
2013-06-16 04:02:00,69.0,62.0,-100.00,North,-999,-999.0,-999.0,78,-99.99,,,-99.99,,2013-06-16 08:02:00,
2013-06-16 04:12:00,69.0,62.0,-100.00,North,-999,-999.0,-999.0,78,-99.99,,,-99.99,,2013-06-16 08:12:00,
2013-06-16 04:22:00,69.0,62.0,-100.00,North,-999,-999.0,-999.0,78,-99.99,,,-99.99,,2013-06-16 08:22:00,
2013-06-16 04:34:00,69.0,61.0,-100.00,North,-999,-999.0,-999.0,76,-99.99,,,-99.99,,2013-06-16 08:34:00,
2013-06-16 04:43:00,69.0,62.0,-100.00,North,-999,-999.0,-999.0,78,-99.99,,,-99.99,,2013-06-16 08:43:00,
2013-06-16 04:54:00,69.0,62.0,-100.00,North,-999,-999.0,-999.0,78,-99.99,,,-99.99,,2013-06-16 08:54:00,
2013-06-16 05:02:00,69.0,62.0,-100.00,North,-999,-999.0,-999.0,78,-99.99,,,-99.99,,2013-06-16 09:02:00,
2013-06-16 05:11:00,69.0,62.0,-100.00,North,-999,-999.0,-999.0,78,-99.99,,,-99.99,,2013-06-16 09:11:00,
2013-06-16 05:22:00,69.0,62.0,-100.00,North,-999,-999.0,-999.0,78,-99.99,,,-99.99,,2013-06-16 09:22:00,
2013-06-16 05:33:00,69.0,62.0,-100.00,North,-999,-999.0,-999.0,80,-99.99,,,-99.99,,2013-06-16 09:33:00,
2013-06-16 05:43:00,68.0,62.0,-100.00,North,-999,-999.0,-999.0,82,-99.99,,,-99.99,,2013-06-16 09:43:00,
2013-06-16 05:52:00,68.0,62.0,-100.00,North,-999,-999.0,-999.0,82,-99.99,,,-99.99,,2013-06-16 09:52:00,
2013-06-16 06:02:00,69.0,63.0,-100.00,North,-999,-999.0,-999.0,82,-99.99,,,-99.99,,2013-06-16 10:02:00,
2013-06-16 06:12:00,69.0,63.0,-100.00,North,-999,-999.0,-999.0,81,-99.99,,,-99.99,,2013-06-16 10:12:00,
2013-06-16 06:22:00,69.0,63.0,-100.00,North,-999,-999.0,-999.0,81,-99.99,,,-99.99,,2013-06-16 10:22:00,
2013-06-16 06:33:00,69.0,63.0,-100.00,North,-999,-999.0,-999.0,81,-99.99,,,-99.99,,2013-06-16 10:33:00,
2013-06-16 06:43:00,69.0,63.0,-100.00,North,-999,-999.0,-999.0,81,-99.99,,,-99.99,,2013-06-16 10:43:00,
2013-06-16 06:53:00,69.0,63.0,-100.00,North,-999,-999.0,-999.0,81,-99.99,,,-99.99,,2013-06-16 10:53:00,
2013-06-16 07:02:00,69.0,64.0,-100.00,North,-999,-999.0,-999.0,82,-99.99,,,-99.99,,2013-06-16 11:02:00,
2013-06-16 07:12:00,69.0,64.0,-100.00,North,-999,-999.0,-999.0,83,-99.99,,,-99.99,,2013-06-16 11:12:00,
2013-06-16 07:22:00,69.0,64.0,-100.00,North,-999,-999.0,-999.0,83,-99.99,,,-99.99,,2013-06-16 11:22:00,
2013-06-16 07:34:00,70.0,64.0,-100.00,North,-999,-999.0,-999.0,83,-99.99,,,-99.99,,2013-06-16 11:34:00,
2013-06-16 07:43:00,69.0,65.0,-100.00,North,-999,-999.0,-999.0,85,-99.99,,,-99.99,,2013-06-16 11:43:00,
2013-06-16 07:52:00,69.0,65.0,-100.00,North,-999,-999.0,-999.0,85,-99.99,,,-99.99,,2013-06-16 11:52:00,
2013-06-16 08:02:00,70.0,65.0,-100.00,North,-999,-999.0,-999.0,84,-99.99,,,-99.99,,2013-06-16 12:02:00,
2013-06-16 08:12:00,70.0,64.0,-100.00,North,-999,-999.0,-999.0,82,-99.99,,,-99.99,,2013-06-16 12:12:00,
2013-06-16 08:22:00,70.0,64.0,-100.00,North,-999,-999.0,-999.0,82,-99.99,,,-99.99,,2013-06-16 12:22:00,
2013-06-16 08:33:00,70.0,64.0,-100.00,North,-999,-999.0,-999.0,82,-99.99,,,-99.99,,2013-06-16 12:33:00,
2013-06-16 08:43:00,71.0,64.0,-100.00,North,-999,-999.0,-999.0,80,-99.99,,,-99.99,,2013-06-16 12:43:00,
2013-06-16 08:53:00,71.0,64.0,-100.00,North,-999,-999.0,-999.0,80,-99.99,,,-99.99,,2013-06-16 12:53:00,
2013-06-16 09:01:00,71.0,64.0,-100.00,North,-999,-999.0,-999.0,79,-99.99,,,-99.99,,2013-06-16 13:01:00,
2013-06-16 09:12:00,73.0,64.0,-100.00,North,-999,-999.0,-999.0,74,-99.99,,,-99.99,,2013-06-16 13:12:00,
2013-06-16 09:22:00,73.0,64.0,-100.00,North,-999,-999.0,-999.0,74,-99.99,,,-99.99,,2013-06-16 13:22:00,
2013-06-16 09:34:00,71.0,64.0,-100.00,North,-999,-999.0,-999.0,78,-99.99,,,-99.99,,2013-06-16 13:34:00,
2013-06-16 09:43:00,72.0,65.0,-100.00,North,-999,-999.0,-999.0,77,-99.99,,,-99.99,,2013-06-16 13:43:00,
2013-06-16 09:54:00,72.0,65.0,-100.00,North,-999,-999.0,-999.0,77,-99.99,,,-99.99,,2013-06-16 13:54:00,
2013-06-16 10:02:00,72.0,65.0,-100.00,North,-999,-999.0,-999.0,76,-99.99,,,-99.99,,2013-06-16 14:02:00,
2013-06-16 10:12:00,73.0,65.0,-100.00,North,-999,-999.0,-999.0,75,-99.99,,,-99.99,,2013-06-16 14:12:00,
2013-06-16 10:22:00,73.0,65.0,-100.00,North,-999,-999.0,-999.0,75,-99.99,,,-99.99,,2013-06-16 14:22:00,
2013-06-16 10:34:00,74.0,65.0,-100.00,North,-999,-999.0,-999.0,73,-99.99,,,-99.99,,2013-06-16 14:34:00,
2013-06-16 10:43:00,75.0,65.0,-100.00,North,-999,-999.0,-999.0,70,-99.99,,,-99.99,,2013-06-16 14:43:00,
2013-06-16 10:52:00,75.0,65.0,-100.00,North,-999,-999.0,-999.0,70,-99.99,,,-99.99,,2013-06-16 14:52:00,
2013-06-16 11:02:00,76.0,64.0,-100.00,North,-999,-999.0,-999.0,67,-99.99,,,-99.99,,2013-06-16 15:02:00,
2013-06-16 11:12:00,77.0,65.0,-100.00,North,-999,-999.0,-999.0,65,-99.99,,,-99.99,,2013-06-16 15:12:00,
2013-06-16 11:23:00,77.0,65.0,-100.00,North,-999,-999.0,-999.0,65,-99.99,,,-99.99,,2013-06-16 15:23:00,
2013-06-16 11:34:00,80.0,64.0,-100.00,North,-999,-999.0,-999.0,59,-99.99,,,-99.99,,2013-06-16 15:34:00,
2013-06-16 11:43:00,80.0,60.0,-100.00,North,-999,-999.0,-999.0,51,-99.99,,,-99.99,,2013-06-16 15:43:00,
2013-06-16 11:52:00,80.0,60.0,-100.00,North,-999,-999.0,-999.0,51,-99.99,,,-99.99,,2013-06-16 15:52:00,
2013-06-16 12:02:00,81.0,61.0,-100.00,North,-999,-999.0,-999.0,50,-99.99,,,-99.99,,2013-06-16 16:02:00,
2013-06-16 12:12:00,81.0,60.0,-100.00,North,-999,-999.0,-999.0,48,-99.99,,,-99.99,,2013-06-16 16:12:00,
2013-06-16 12:23:00,81.0,60.0,-100.00,North,-999,-999.0,-999.0,48,-99.99,,,-99.99,,2013-06-16 16:23:00,
2013-06-16 12:33:00,82.0,60.0,-100.00,North,-999,-999.0,-999.0,47,-99.99,,,-99.99,,2013-06-16 16:33:00,
2013-06-16 12:43:00,83.0,59.0,-100.00,North,-999,-999.0,-999.0,45,-99.99,,,-99.99,,2013-06-16 16:43:00,
2013-06-16 12:53:00,83.0,59.0,-100.00,North,-999,-999.0,-999.0,45,-99.99,,,-99.99,,2013-06-16 16:53:00,
2013-06-16 13:02:00,84.0,61.0,-100.00,North,-999,-999.0,-999.0,45,-99.99,,,-99.99,,2013-06-16 17:02:00,
2013-06-16 13:12:00,84.0,61.0,-100.00,North,-999,-999.0,-999.0,46,-99.99,,,-99.99,,2013-06-16 17:12:00,
2013-06-16 13:22:00,84.0,61.0,-100.00,North,-999,-999.0,-999.0,46,-99.99,,,-99.99,,2013-06-16 17:22:00,
2013-06-16 13:34:00,85.0,61.0,-100.00,North,-999,-999.0,-999.0,45,-99.99,,,-99.99,,2013-06-16 17:34:00,
2013-06-16 13:43:00,85.0,62.0,-100.00,North,-999,-999.0,-999.0,46,-99.99,,,-99.99,,2013-06-16 17:43:00,
2013-06-16 13:53:00,85.0,62.0,-100.00,North,-999,-999.0,-999.0,46,-99.99,,,-99.99,,2013-06-16 17:53:00,
2013-06-16 14:02:00,85.0,61.0,-100.00,North,-999,-999.0,-999.0,45,-99.99,,,-99.99,,2013-06-16 18:02:00,
2013-06-16 14:12:00,83.0,62.0,-100.00,North,-999,-999.0,-999.0,49,-99.99,,,-99.99,,2013-06-16 18:12:00,
2013-06-16 14:22:00,83.0,62.0,-100.00,North,-999,-999.0,-999.0,49,-99.99,,,-99.99,,2013-06-16 18:22:00,
2013-06-16 14:34:00,83.0,63.0,-100.00,North,-999,-999.0,-999.0,52,-99.99,,,-99.99,,2013-06-16 18:34:00,
2013-06-16 14:43:00,83.0,64.0,-100.00,North,-999,-999.0,-999.0,53,-99.99,,,-99.99,,2013-06-16 18:43:00,
2013-06-16 14:52:00,83.0,64.0,-100.00,North,-999,-999.0,-999.0,53,-99.99,,,-99.99,,2013-06-16 18:52:00,
2013-06-16 15:01:00,83.0,64.0,-100.00,North,-999,-999.0,-999.0,53,-99.99,,,-99.99,,2013-06-16 19:01:00,
2013-06-16 15:12:00,84.0,65.0,-100.00,North,-999,-999.0,-999.0,53,-99.99,,,-99.99,,2013-06-16 19:12:00,
2013-06-16 15:22:00,84.0,65.0,-100.00,North,-999,-999.0,-999.0,53,-99.99,,,-99.99,,2013-06-16 19:22:00,
2013-06-16 15:34:00,85.0,65.0,-100.00,North,-999,-999.0,-999.0,51,-99.99,,,-99.99,,2013-06-16 19:34:00,
2013-06-16 15:43:00,84.0,64.0,-100.00,North,-999,-999.0,-999.0,50,-99.99,,,-99.99,,2013-06-16 19:43:00,
2013-06-16 15:53:00,84.0,64.0,-100.00,North,-999,-999.0,-999.0,50,-99.99,,,-99.99,,2013-06-16 19:53:00,
2013-06-16 16:02:00,84.0,63.0,-100.00,North,-999,-999.0,-999.0,49,-99.99,,,-99.99,,2013-06-16 20:02:00,
2013-06-16 16:12:00,84.0,63.0,-100.00,North,-999,-999.0,-999.0,50,-99.99,,,-99.99,,2013-06-16 20:12:00,
2013-06-16 16:22:00,84.0,63.0,-100.00,North,-999,-999.0,-999.0,50,-99.99,,,-99.99,,2013-06-16 20:22:00,
2013-06-16 16:33:00,83.0,63.0,-100.00,North,-999,-999.0,-999.0,51,-99.99,,,-99.99,,2013-06-16 20:33:00,
2013-06-16 16:42:00,83.0,64.0,-100.00,North,-999,-999.0,-999.0,53,-99.99,,,-99.99,,2013-06-16 20:42:00,
2013-06-16 16:53:00,83.0,64.0,-100.00,North,-999,-999.0,-999.0,53,-99.99,,,-99.99,,2013-06-16 20:53:00,
2013-06-16 17:02:00,82.0,65.0,-100.00,North,-999,-999.0,-999.0,58,-99.99,,,-99.99,,2013-06-16 21:02:00,
2013-06-16 17:11:00,82.0,66.0,-100.00,North,-999,-999.0,-999.0,59,-99.99,,,-99.99,,2013-06-16 21:11:00,
2013-06-16 17:22:00,82.0,66.0,-100.00,North,-999,-999.0,-999.0,59,-99.99,,,-99.99,,2013-06-16 21:22:00,
2013-06-16 17:33:00,83.0,66.0,-100.00,North,-999,-999.0,-999.0,57,-99.99,,,-99.99,,2013-06-16 21:33:00,
2013-06-16 17:42:00,84.0,67.0,-100.00,North,-999,-999.0,-999.0,57,-99.99,,,-99.99,,2013-06-16 21:42:00,
2013-06-16 17:53:00,84.0,67.0,-100.00,North,-999,-999.0,-999.0,57,-99.99,,,-99.99,,2013-06-16 21:53:00,
2013-06-16 18:02:00,84.0,67.0,-100.00,North,-999,-999.0,-999.0,57,-99.99,,,-99.99,,2013-06-16 22:02:00,
2013-06-16 18:12:00,84.0,66.0,-100.00,North,-999,-999.0,-999.0,56,-99.99,,,-99.99,,2013-06-16 22:12:00,
2013-06-16 18:22:00,84.0,66.0,-100.00,North,-999,-999.0,-999.0,56,-99.99,,,-99.99,,2013-06-16 22:22:00,
2013-06-16 18:32:00,83.0,67.0,-100.00,North,-999,-999.0,-999.0,57,-99.99,,,-99.99,,2013-06-16 22:32:00,
2013-06-16 18:42:00,84.0,66.0,-100.00,North,-999,-999.0,-999.0,55,-99.99,,,-99.99,,2013-06-16 22:42:00,
2013-06-16 18:52:00,84.0,66.0,-100.00,North,-999,-999.0,-999.0,55,-99.99,,,-99.99,,2013-06-16 22:52:00,
2013-06-16 19:02:00,84.0,66.0,-100.00,North,-999,-999.0,-999.0,56,-99.99,,,-99.99,,2013-06-16 23:02:00,
2013-06-16 19:11:00,83.0,67.0,-100.00,North,-999,-999.0,-999.0,58,-99.99,,,-99.99,,2013-06-16 23:11:00,
2013-06-16 19:22:00,83.0,67.0,-100.00,North,-999,-999.0,-999.0,58,-99.99,,,-99.99,,2013-06-16 23:22:00,
2013-06-16 19:32:00,83.0,67.0,-100.00,North,-999,-999.0,-999.0,59,-99.99,,,-99.99,,2013-06-16 23:32:00,
2013-06-16 19:42:00,82.0,67.0,-100.00,North,-999,-999.0,-999.0,60,-99.99,,,-99.99,,2013-06-16 23:42:00,
2013-06-16 19:52:00,82.0,67.0,-100.00,North,-999,-999.0,-999.0,60,-99.99,,,-99.99,,2013-06-16 23:52:00,
2013-06-16 20:02:00,82.0,67.0,-100.00,North,-999,-999.0,-999.0,61,-99.99,,,-99.99,,2013-06-17 00:02:00,
2013-06-16 20:12:00,82.0,67.0,-100.00,North,-999,-999.0,-999.0,62,-99.99,,,-99.99,,2013-06-17 00:12:00,
2013-06-16 20:22:00,82.0,67.0,-100.00,North,-999,-999.0,-999.0,62,-99.99,,,-99.99,,2013-06-17 00:22:00,
2013-06-16 20:32:00,82.0,67.0,-100.00,North,-999,-999.0,-999.0,62,-99.99,,,-99.99,,2013-06-17 00:32:00,
2013-06-16 20:43:00,81.0,67.0,-100.00,North,-999,-999.0,-999.0,62,-99.99,,,-99.99,,2013-06-17 00:43:00,
2013-06-16 20:52:00,81.0,67.0,-100.00,North,-999,-999.0,-999.0,62,-99.99,,,-99.99,,2013-06-17 00:52:00,
2013-06-16 21:02:00,81.0,67.0,-100.00,North,-999,-999.0,-999.0,62,-99.99,,,-99.99,,2013-06-17 01:02:00,
2013-06-16 21:12:00,80.0,67.0,-100.00,North,-999,-999.0,-999.0,64,-99.99,,,-99.99,,2013-06-17 01:12:00,
2013-06-16 21:22:00,80.0,67.0,-100.00,North,-999,-999.0,-999.0,64,-99.99,,,-99.99,,2013-06-17 01:22:00,
2013-06-16 21:32:00,80.0,67.0,-100.00,North,-999,-999.0,-999.0,65,-99.99,,,-99.99,,2013-06-17 01:32:00,
2013-06-16 21:43:00,79.0,68.0,-100.00,North,-999,-999.0,-999.0,67,-99.99,,,-99.99,,2013-06-17 01:43:00,
2013-06-16 21:53:00,79.0,68.0,-100.00,North,-999,-999.0,-999.0,67,-99.99,,,-99.99,,2013-06-17 01:53:00,
2013-06-16 22:03:00,79.0,68.0,-100.00,North,-999,-999.0,-999.0,69,-99.99,,,-99.99,,2013-06-17 02:03:00,
2013-06-16 22:12:00,79.0,68.0,-100.00,North,-999,-999.0,-999.0,69,-99.99,,,-99.99,,2013-06-17 02:12:00,
2013-06-16 22:22:00,79.0,68.0,-100.00,North,-999,-999.0,-999.0,69,-99.99,,,-99.99,,2013-06-17 02:22:00,
2013-06-16 22:34:00,79.0,68.0,-100.00,North,-999,-999.0,-999.0,70,-99.99,,,-99.99,,2013-06-17 02:34:00,
2013-06-16 22:43:00,78.0,68.0,-100.00,North,-999,-999.0,-999.0,70,-99.99,,,-99.99,,2013-06-17 02:43:00,
2013-06-16 22:53:00,78.0,68.0,-100.00,North,-999,-999.0,-999.0,70,-99.99,,,-99.99,,2013-06-17 02:53:00,
2013-06-16 23:02:00,79.0,67.0,-100.00,North,-999,-999.0,-999.0,69,-99.99,,,-99.99,,2013-06-17 03:02:00,
2013-06-16 23:12:00,79.0,67.0,-100.00,North,-999,-999.0,-999.0,68,-99.99,,,-99.99,,2013-06-17 03:12:00,
2013-06-16 23:22:00,79.0,67.0,-100.00,North,-999,-999.0,-999.0,68,-99.99,,,-99.99,,2013-06-17 03:22:00,
2013-06-16 23:33:00,79.0,67.0,-100.00,North,-999,-999.0,-999.0,67,-99.99,,,-99.99,,2013-06-17 03:33:00,
2013-06-16 23:44:00,78.0,66.0,-100.00,North,-999,-999.0,-999.0,66,-99.99,,,-99.99,,2013-06-17 03:44:00,
2013-06-16 23:53:00,78.0,66.0,-100.00,North,-999,-999.0,-999.0,66,-99.99,,,-99.99,,2013-06-17 03:53:00,